createdAt,value
2022-11-28T00:01:36.043Z,99075.34
2022-11-28T00:04:04.970Z,99060.75
2022-11-28T00:06:33.035Z,99067.38
2022-11-28T00:09:01.333Z,99065.06
2022-11-28T00:11:30.809Z,99058.28
2022-11-28T00:13:58.738Z,99052.94
2022-11-28T00:16:26.798Z,99006.19
2022-11-28T00:18:56.012Z,99012.81
2022-11-28T00:21:24.233Z,98997.41
2022-11-28T00:23:52.999Z,99002.72
2022-11-28T00:26:23.183Z,98997.28
2022-11-28T00:28:53.062Z,98986.97
2022-11-28T00:31:24.126Z,98990.44
2022-11-28T00:33:52.638Z,98977.50
2022-11-28T00:36:21.250Z,98988.63
2022-11-28T00:38:49.688Z,98975.66
2022-11-28T00:41:19.417Z,98968.88
2022-11-28T00:43:48.507Z,98967.66
2022-11-28T00:46:19.221Z,98961.56
2022-11-28T00:48:47.515Z,98960.56
2022-11-28T00:51:17.443Z,98944.63
2022-11-28T00:53:47.956Z,98927.19
2022-11-28T00:56:18.113Z,98908.25
2022-11-28T00:58:50.833Z,98897.03
2022-11-28T01:01:23.057Z,98894.69
2022-11-28T01:03:53.970Z,98886.56
2022-11-28T01:06:24.257Z,98894.03
2022-11-28T01:08:53.223Z,98897.13
2022-11-28T01:11:22.128Z,98887.88
2022-11-28T01:13:50.861Z,98894.16
2022-11-28T01:16:20.537Z,98896.72
2022-11-28T01:18:48.725Z,98900.25
2022-11-28T01:21:17.102Z,98914.66
2022-11-28T01:23:45.104Z,98911.38
2022-11-28T01:26:18.626Z,98921.97
2022-11-28T01:28:47.137Z,98940.47
2022-11-28T01:31:18.329Z,98955.16
2022-11-28T01:33:48.163Z,98966.72
2022-11-28T01:36:17.380Z,98976.06
2022-11-28T01:38:46.109Z,98986.00
2022-11-28T01:41:15.406Z,98971.44
2022-11-28T01:43:59.426Z,98962.03
2022-11-28T01:46:27.674Z,98967.56
2022-11-28T01:49:00.234Z,98957.81
2022-11-28T01:51:28.654Z,98948.91
2022-11-28T01:53:57.571Z,98921.66
2022-11-28T01:56:29.907Z,98891.19
2022-11-28T01:59:01.780Z,98885.19
2022-11-28T02:01:29.996Z,98872.22
2022-11-28T02:04:01.213Z,98852.78
2022-11-28T02:06:29.470Z,98823.81
2022-11-28T02:08:57.583Z,98814.50
2022-11-28T02:11:55.858Z,98798.16
2022-11-28T02:14:43.824Z,98769.31
2022-11-28T02:17:20.731Z,98773.44
2022-11-28T02:20:18.181Z,98806.50
2022-11-28T02:22:53.561Z,98830.88
2022-11-28T02:25:49.403Z,98823.31
2022-11-28T02:28:43.043Z,98828.56
2022-11-28T02:31:29.004Z,98839.59
2022-11-28T02:34:03.689Z,98929.75
2022-11-28T02:36:35.307Z,98950.59
2022-11-28T02:39:11.883Z,98950.34
2022-11-28T02:41:46.087Z,98943.88
2022-11-28T02:44:19.700Z,98946.44
2022-11-28T02:46:54.925Z,98952.94
2022-11-28T02:49:31.419Z,98968.72
2022-11-28T02:52:04.467Z,98960.72
2022-11-28T02:54:32.914Z,98970.63
2022-11-28T02:57:00.916Z,98977.66
2022-11-28T02:59:47.924Z,98974.72
2022-11-28T03:02:20.795Z,98973.91
2022-11-28T03:05:01.341Z,98987.00
2022-11-28T03:07:43.675Z,99001.13
2022-11-28T03:10:22.623Z,99020.03
2022-11-28T03:12:57.266Z,98999.03
2022-11-28T03:15:32.708Z,99035.25
2022-11-28T03:18:08.675Z,99061.63
2022-11-28T03:20:48.113Z,99072.94
2022-11-28T03:23:18.193Z,99095.50
2022-11-28T03:25:56.376Z,99108.13
2022-11-28T03:28:28.116Z,99118.00
2022-11-28T03:31:01.918Z,99120.03
2022-11-28T03:33:34.396Z,99093.03
2022-11-28T03:36:08.573Z,99116.59
2022-11-28T03:38:40.670Z,99150.38
2022-11-28T03:41:14.785Z,99167.88
2022-11-28T03:43:48.198Z,99185.97
2022-11-28T03:46:19.342Z,99186.41
2022-11-28T03:48:51.813Z,99181.03
2022-11-28T03:51:24.126Z,99157.03
2022-11-28T03:53:57.334Z,99144.38
2022-11-28T03:56:35.526Z,99142.22
2022-11-28T03:59:08.730Z,99125.81
2022-11-28T04:01:47.587Z,99123.56
2022-11-28T04:04:23.665Z,99129.91
2022-11-28T04:06:56.798Z,99125.63
2022-11-28T04:09:39.011Z,99151.00
2022-11-28T04:12:15.264Z,99174.38
2022-11-28T04:14:53.951Z,99189.19
2022-11-28T04:17:30.774Z,99216.75
2022-11-28T04:20:05.370Z,99223.47
2022-11-28T04:22:39.162Z,99249.97
2022-11-28T04:25:10.496Z,99276.22
2022-11-28T04:27:42.225Z,99305.81
2022-11-28T04:30:12.546Z,99329.06
2022-11-28T04:32:47.131Z,99361.88
2022-11-28T04:35:20.422Z,99383.84
2022-11-28T04:37:53.312Z,99413.56
2022-11-28T04:40:23.872Z,99426.69
2022-11-28T04:42:56.809Z,99436.25
2022-11-28T04:45:30.166Z,99444.34
2022-11-28T04:47:58.557Z,99434.72
2022-11-28T04:50:32.192Z,99435.06
2022-11-28T04:53:10.476Z,99419.41
2022-11-28T04:55:46.177Z,99407.50
2022-11-28T04:58:17.965Z,99394.81
2022-11-28T05:00:47.927Z,99356.97
2022-11-28T05:03:15.960Z,99330.97
2022-11-28T05:05:46.755Z,99295.06
2022-11-28T05:08:16.878Z,99281.06
2022-11-28T05:10:45.368Z,99258.22
2022-11-28T05:13:13.490Z,99214.81
2022-11-28T05:15:41.491Z,99191.00
2022-11-28T05:18:09.355Z,99173.19
2022-11-28T05:20:38.414Z,99160.22
2022-11-28T05:23:06.473Z,99157.78
2022-11-28T05:25:36.230Z,99134.09
2022-11-28T05:28:04.233Z,99106.44
2022-11-28T05:30:32.228Z,99081.47
2022-11-28T05:33:00.651Z,99080.25
2022-11-28T05:35:28.697Z,99062.81
2022-11-28T05:37:56.588Z,99057.97
2022-11-28T05:40:24.554Z,99055.66
2022-11-28T05:42:53.717Z,99055.09
2022-11-28T05:45:21.669Z,99061.31
2022-11-28T05:47:49.610Z,99067.63
2022-11-28T05:50:17.736Z,99065.81
2022-11-28T05:52:45.557Z,99079.66
2022-11-28T05:55:13.502Z,99082.34
2022-11-28T05:57:41.465Z,99075.47
2022-11-28T06:00:12.808Z,99083.19
2022-11-28T06:02:42.048Z,99092.19
2022-11-28T06:05:27.718Z,99080.06
2022-11-28T06:07:58.028Z,99057.91
2022-11-28T06:10:25.903Z,99044.06
2022-11-28T06:12:53.741Z,99036.78
2022-11-28T06:15:22.907Z,99014.78
2022-11-28T06:17:50.674Z,99009.38
2022-11-28T06:20:18.981Z,99002.50
2022-11-28T06:22:47.895Z,98990.50
2022-11-28T06:25:15.902Z,98984.16
2022-11-28T06:27:43.943Z,98988.88
2022-11-28T06:30:12.148Z,98975.88
2022-11-28T06:32:41.419Z,98940.75
2022-11-28T06:35:09.695Z,98918.91
2022-11-28T06:37:37.872Z,98887.91
2022-11-28T06:40:06.957Z,98859.09
2022-11-28T06:42:35.922Z,98838.94
2022-11-28T06:45:03.833Z,98818.66
2022-11-28T06:47:31.730Z,98816.31
2022-11-28T06:50:00.984Z,98809.34
2022-11-28T06:52:28.992Z,98798.41
2022-11-28T06:54:56.948Z,98788.38
2022-11-28T06:57:24.793Z,98787.91
2022-11-28T06:59:52.805Z,98786.81
2022-11-28T07:02:20.773Z,98768.28
2022-11-28T07:04:48.800Z,98770.75
2022-11-28T07:07:18.669Z,98762.72
2022-11-28T07:09:46.698Z,98756.84
2022-11-28T07:12:15.676Z,98749.84
2022-11-28T07:14:43.533Z,98745.91
2022-11-28T07:17:11.512Z,98727.06
2022-11-28T07:19:39.554Z,98730.09
2022-11-28T07:22:07.552Z,98698.28
2022-11-28T07:24:36.801Z,98685.88
2022-11-28T07:35:08.911Z,98666.75
2022-11-28T08:01:39.608Z,98615.34
2022-11-28T08:04:10.386Z,98612.91
2022-11-28T08:06:41.023Z,98604.63
2022-11-28T08:09:09.586Z,98609.38
2022-11-28T08:11:37.749Z,98605.13
2022-11-28T08:14:06.648Z,98612.06
2022-11-28T08:16:34.923Z,98610.13
2022-11-28T08:19:04.778Z,98600.25
2022-11-28T08:21:34.483Z,98612.66
2022-11-28T08:24:03.820Z,98612.31
2022-11-28T08:26:33.500Z,98619.50
2022-11-28T08:29:02.400Z,98621.22
2022-11-28T08:31:32.960Z,98614.13
2022-11-28T08:34:04.766Z,98634.13
2022-11-28T08:36:34.940Z,98645.09
2022-11-28T08:41:52.701Z,98640.72
2022-11-28T08:44:21.051Z,98661.53
2022-11-28T08:46:49.257Z,98660.31
2022-11-28T08:49:17.476Z,98659.09
2022-11-28T08:51:47.500Z,98674.94
2022-11-28T08:54:16.500Z,98686.91
2022-11-28T08:56:45.351Z,98689.19
2022-11-28T08:59:13.504Z,98689.94
2022-11-28T09:01:41.829Z,98760.63
2022-11-28T09:04:10.137Z,98782.94
2022-11-28T09:06:40.251Z,98786.34
2022-11-28T09:09:10.302Z,98799.63
2022-11-28T09:11:39.199Z,98792.00
2022-11-28T09:14:08.203Z,98805.03
2022-11-28T09:16:40.150Z,98805.13
2022-11-28T09:19:09.374Z,98814.00
2022-11-28T09:21:38.032Z,98812.91
2022-11-28T09:24:14.179Z,98819.75
2022-11-28T09:26:43.383Z,98828.44
2022-11-28T09:29:11.917Z,98836.22
2022-11-28T09:31:59.738Z,98848.50
2022-11-28T09:34:41.694Z,98840.97
2022-11-28T09:37:10.132Z,98848.88
2022-11-28T09:40:11.571Z,98854.22
2022-11-28T09:42:39.409Z,98853.47
2022-11-28T09:45:12.757Z,98861.78
2022-11-28T09:47:43.491Z,98856.81
2022-11-28T09:50:16.841Z,98873.72
2022-11-28T09:52:51.006Z,98874.19
2022-11-28T09:55:30.920Z,98876.00
2022-11-28T09:58:01.117Z,98880.94
2022-11-28T10:00:35.613Z,98885.69
2022-11-28T10:03:29.851Z,98836.94
2022-11-28T10:06:06.596Z,98834.16
2022-11-28T10:08:41.545Z,98860.31
2022-11-28T10:11:24.567Z,98881.34
2022-11-28T10:14:08.475Z,98901.59
2022-11-28T10:16:46.923Z,98913.19
2022-11-28T10:19:46.563Z,98938.19
2022-11-28T10:22:12.975Z,98946.75
2022-11-28T10:24:45.895Z,98955.22
2022-11-28T10:27:21.192Z,98972.31
2022-11-28T10:29:59.795Z,98972.19
2022-11-28T10:32:34.028Z,98983.53
2022-11-28T10:35:07.177Z,98982.97
2022-11-28T10:37:38.339Z,98997.19
2022-11-28T10:40:22.556Z,99000.16
2022-11-28T10:43:03.669Z,99013.16
2022-11-28T10:45:43.512Z,99021.09
2022-11-28T10:48:41.009Z,99027.50
2022-11-28T10:51:32.625Z,99031.59
2022-11-28T10:54:15.783Z,99065.75
2022-11-28T10:56:59.376Z,99096.72
2022-11-28T12:01:23.251Z,99477.38
2022-11-28T12:04:13.278Z,99493.25
2022-11-28T12:07:07.408Z,99530.19
2022-11-28T12:09:43.878Z,99529.97
2022-11-28T12:12:19.864Z,99591.22
2022-11-28T12:14:50.060Z,99664.19
2022-11-28T12:17:58.340Z,99725.34
2022-11-28T12:20:39.321Z,99799.91
2022-11-28T12:23:31.129Z,99863.34
2022-11-28T12:26:10.053Z,99897.28
2022-11-28T12:28:50.856Z,99927.38
2022-11-28T12:31:30.687Z,99957.84
2022-11-28T12:34:13.893Z,99973.25
2022-11-28T12:36:54.247Z,100017.06
2022-11-28T12:39:31.934Z,100052.31
2022-11-28T12:42:19.188Z,100079.31
2022-11-28T12:45:23.051Z,100085.81
2022-11-28T12:48:02.346Z,100125.97
2022-11-28T12:50:41.253Z,100156.34
2022-11-28T12:53:43.605Z,100183.44
2022-11-28T12:56:26.913Z,100182.66
2022-11-28T12:59:05.664Z,100212.03
2022-11-28T13:01:49.151Z,100222.50
2022-11-28T13:04:40.171Z,100280.06
2022-11-28T13:07:19.643Z,100341.31
2022-11-28T13:10:05.753Z,100411.41
2022-11-28T13:12:49.929Z,100419.16
2022-11-28T13:15:32.485Z,100452.75
2022-11-28T13:18:15.249Z,100450.00
2022-11-28T13:20:49.788Z,100436.28
2022-11-28T13:23:25.554Z,100455.47
2022-11-28T13:26:02.198Z,100501.09
2022-11-28T13:28:37.706Z,100523.03
2022-11-28T13:31:20.607Z,100577.06
2022-11-28T13:33:56.885Z,100600.41
2022-11-28T13:39:44.715Z,100696.88
2022-11-28T13:45:31.751Z,100794.53
2022-11-28T13:48:09.254Z,100772.47
2022-11-28T13:50:59.922Z,100731.09
2022-11-28T13:53:31.027Z,100721.09
2022-11-28T13:56:25.502Z,100740.53
2022-11-28T13:59:01.246Z,100758.81
2022-11-28T14:01:35.160Z,100796.13
2022-11-28T14:04:17.160Z,100811.50
2022-11-28T14:07:02.938Z,100835.59
2022-11-28T14:09:47.836Z,100845.38
2022-11-28T14:12:39.278Z,100885.00
2022-11-28T14:15:28.426Z,101017.66
2022-11-28T14:18:54.892Z,100969.44
2022-11-28T14:21:25.588Z,101029.19
2022-11-28T14:24:04.180Z,101056.25
2022-11-28T14:26:43.153Z,101084.91
2022-11-28T14:29:28.958Z,101150.44
2022-11-28T14:34:48.372Z,101160.00
2022-11-28T14:37:50.665Z,101180.97
2022-11-28T14:41:11.930Z,101163.22
2022-11-28T14:43:53.161Z,101127.69
2022-11-28T14:46:33.524Z,101122.41
2022-11-28T14:49:20.538Z,101114.53
2022-11-28T14:52:38.516Z,101112.72
2022-11-28T14:55:24.780Z,101189.72
2022-11-28T14:58:07.374Z,101223.38
2022-11-28T15:00:52.734Z,101242.19
2022-11-28T15:03:33.931Z,101285.16
2022-11-28T15:06:13.602Z,101330.59
2022-11-28T15:09:12.261Z,101300.34
2022-11-28T15:11:58.879Z,101295.56
2022-11-28T15:14:32.786Z,101335.97
2022-11-28T15:17:12.855Z,101145.22
2022-11-28T15:19:51.047Z,101069.09
2022-11-28T15:22:37.057Z,100870.22
2022-11-28T15:25:20.053Z,100668.34
2022-11-28T15:27:55.728Z,100549.81
2022-11-28T15:30:28.375Z,99772.25
2022-11-28T15:33:01.396Z,99784.53
2022-11-28T15:35:31.819Z,99787.97
2022-11-28T15:38:00.374Z,99799.47
2022-11-28T15:40:33.639Z,99793.91
2022-11-28T15:43:08.107Z,99754.03
2022-11-28T15:45:42.325Z,99836.38
2022-11-28T15:48:27.237Z,99884.72
2022-11-28T15:50:56.788Z,100281.91
2022-11-28T15:53:24.930Z,100332.25
2022-11-28T15:56:09.489Z,100393.16
2022-11-28T15:58:37.838Z,100534.38
2022-11-28T16:01:12.777Z,100562.91
2022-11-28T16:03:48.663Z,100555.19
2022-11-28T16:06:19.988Z,100627.38
2022-11-28T16:08:52.621Z,101346.47
2022-11-28T16:11:34.515Z,101393.19
2022-11-28T16:14:24.597Z,101447.50
2022-11-28T16:16:57.210Z,101466.53
2022-11-28T16:19:40.654Z,101493.19
2022-11-28T16:22:25.533Z,101551.72
2022-11-28T16:24:58.292Z,101546.59
2022-11-28T16:27:31.468Z,101545.69
2022-11-28T16:30:00.805Z,101569.03
2022-11-28T16:32:37.949Z,101575.31
2022-11-28T16:35:08.575Z,101592.34
2022-11-28T16:37:38.369Z,101603.97
2022-11-28T16:40:14.848Z,101673.63
2022-11-28T16:42:43.067Z,101696.09
2022-11-28T16:45:17.356Z,101701.63
2022-11-28T16:47:47.087Z,101715.28
2022-11-28T16:50:22.141Z,101744.47
2022-11-28T16:52:57.722Z,101767.06
2022-11-28T16:55:44.254Z,101805.41
2022-11-28T16:58:17.620Z,101835.72
2022-11-28T17:00:51.805Z,101845.72
2022-11-28T17:03:41.992Z,101839.09
2022-11-28T17:06:16.870Z,101829.41
2022-11-28T17:08:46.879Z,101812.66
2022-11-28T17:11:16.842Z,101860.13
2022-11-28T17:13:48.466Z,101901.34
2022-11-28T17:16:25.994Z,101934.28
2022-11-28T17:18:57.475Z,101962.88
2022-11-28T17:21:32.229Z,101960.47
2022-11-28T17:24:02.557Z,101991.81
2022-11-28T17:26:30.796Z,102039.19
2022-11-28T17:28:59.191Z,102056.13
2022-11-28T17:31:27.370Z,102035.66
2022-11-28T17:33:55.470Z,102044.44
2022-11-28T17:36:23.519Z,102029.44
2022-11-28T17:38:51.664Z,101990.78
2022-11-28T17:41:23.248Z,101949.44
2022-11-28T17:43:51.341Z,101955.66
2022-11-28T17:46:21.603Z,101982.41
2022-11-28T17:48:49.890Z,102046.81
2022-11-28T17:51:19.069Z,102058.53
2022-11-28T17:53:48.075Z,102075.66
2022-11-28T17:56:16.419Z,102149.13
2022-11-28T17:58:46.424Z,102159.06
2022-11-28T18:01:28.514Z,102184.06
2022-11-28T18:04:02.526Z,102208.38
2022-11-28T18:06:30.897Z,102240.56
2022-11-28T18:09:00.381Z,102288.00
2022-11-28T18:11:42.367Z,102305.03
2022-11-28T18:14:19.668Z,102348.16
2022-11-28T18:17:09.509Z,102422.28
2022-11-28T18:19:43.041Z,102400.88
2022-11-28T18:22:12.229Z,102457.44
2022-11-28T18:24:40.782Z,102485.00
2022-11-28T18:27:09.108Z,102506.41
2022-11-28T18:29:38.956Z,102494.59
2022-11-28T18:32:07.755Z,102536.84
2022-11-28T18:34:48.601Z,102533.09
2022-11-28T18:37:18.896Z,102554.63
2022-11-28T18:39:53.428Z,102570.84
2022-11-28T18:42:26.630Z,102539.47
2022-11-28T18:44:59.910Z,102576.19
2022-11-28T18:47:33.291Z,102625.44
2022-11-28T18:50:01.784Z,102621.09
2022-11-28T18:52:33.764Z,102656.06
2022-11-28T18:55:05.086Z,102624.50
2022-11-28T18:57:34.934Z,102675.66
2022-11-28T19:00:07.205Z,102671.25
2022-11-28T19:02:35.886Z,102672.03
2022-11-28T19:05:05.164Z,102705.13
2022-11-28T19:07:33.758Z,102719.56
2022-11-28T19:10:04.570Z,102722.19
2022-11-28T19:12:32.848Z,102780.53
2022-11-28T19:15:04.637Z,102790.28
2022-11-28T19:17:35.463Z,102695.25
2022-11-28T19:20:05.824Z,102697.13
2022-11-28T19:22:36.303Z,102622.66
2022-11-28T19:25:07.280Z,102610.97
2022-11-28T19:27:39.876Z,102402.16
2022-11-28T19:30:14.355Z,102392.25
2022-11-28T19:32:42.846Z,102354.53
2022-11-28T19:35:13.042Z,102348.28
2022-11-28T19:37:42.304Z,102357.16
2022-11-28T19:40:11.132Z,102386.72
2022-11-28T19:42:39.837Z,102378.78
2022-11-28T19:45:11.156Z,102517.59
2022-11-28T19:47:39.336Z,102505.22
2022-11-28T19:50:09.681Z,102513.28
2022-11-28T19:52:37.952Z,102527.38
2022-11-28T19:55:07.787Z,102949.72
2022-11-28T19:57:37.144Z,103061.88
2022-11-28T20:00:06.295Z,103127.31
2022-11-28T20:02:43.376Z,103128.25
2022-11-28T20:05:11.899Z,103122.94
2022-11-28T20:07:40.043Z,103108.56
2022-11-28T20:10:10.046Z,103344.41
2022-11-28T20:12:39.300Z,103424.25
2022-11-28T20:15:11.462Z,103397.34
2022-11-28T20:17:44.881Z,103357.84
2022-11-28T20:20:13.548Z,103427.81
2022-11-28T20:22:42.156Z,103445.75
2022-11-28T20:25:10.457Z,103464.56
2022-11-28T20:27:39.357Z,103446.66
2022-11-28T20:30:09.466Z,103459.22
2022-11-28T20:32:38.564Z,103472.66
2022-11-28T20:35:09.637Z,103428.75
2022-11-28T20:37:39.098Z,103439.56
2022-11-28T20:40:08.571Z,103430.59
2022-11-28T20:42:39.854Z,103486.13
2022-11-28T20:45:09.155Z,103471.81
2022-11-28T20:47:37.359Z,103428.75
2022-11-28T20:50:09.477Z,103452.03
2022-11-28T20:52:38.128Z,103471.78
2022-11-28T20:55:07.011Z,103499.59
2022-11-28T20:57:35.003Z,103535.56
2022-11-28T21:00:03.127Z,103606.38
2022-11-28T21:02:31.339Z,103622.53
2022-11-28T21:04:59.429Z,103646.75
2022-11-28T21:07:30.949Z,103646.72
2022-11-28T21:10:00.179Z,103702.38
2022-11-28T21:12:28.399Z,103701.47
2022-11-28T21:14:56.805Z,103708.66
2022-11-28T21:17:24.984Z,103714.03
2022-11-28T21:19:52.990Z,103705.94
2022-11-28T21:22:21.107Z,103710.47
2022-11-28T21:24:51.777Z,103718.50
2022-11-28T21:27:19.830Z,103768.72
2022-11-28T21:29:49.982Z,103735.56
2022-11-28T21:32:18.036Z,103761.56
2022-11-28T21:34:47.176Z,103776.81
2022-11-28T21:37:15.263Z,103767.81
2022-11-28T21:39:43.623Z,103739.16
2022-11-28T21:42:18.932Z,103726.53
2022-11-28T21:44:48.551Z,103712.22
2022-11-28T21:47:16.630Z,103708.59
2022-11-28T21:49:45.048Z,103696.03
2022-11-28T21:52:13.544Z,103684.38
2022-11-28T21:54:41.721Z,103686.13
2022-11-28T21:57:10.033Z,103693.31
2022-11-28T21:59:39.587Z,103660.09
2022-11-28T22:02:11.657Z,103659.19
2022-11-28T22:04:40.149Z,103631.38
2022-11-28T22:07:08.259Z,103641.28
2022-11-28T22:09:36.672Z,103638.56
2022-11-28T22:12:05.122Z,103623.31
2022-11-28T22:14:36.828Z,103592.81
2022-11-28T22:17:06.717Z,103585.56
2022-11-28T22:19:35.266Z,103570.34
2022-11-28T22:22:03.630Z,103497.69
2022-11-28T22:24:33.322Z,103449.13
2022-11-28T22:27:01.389Z,103499.44
2022-11-28T22:29:29.646Z,103466.22
2022-11-28T22:31:57.775Z,103453.66
2022-11-28T22:34:27.260Z,103450.97
2022-11-28T22:36:55.374Z,103442.00
2022-11-28T22:39:23.984Z,103458.09
2022-11-28T22:41:52.118Z,103432.22
2022-11-28T22:44:21.436Z,103460.88
2022-11-28T22:46:50.211Z,103450.06
2022-11-28T22:49:19.643Z,103448.25
2022-11-28T22:51:49.930Z,103438.41
2022-11-28T22:54:18.916Z,103462.63
2022-11-28T22:56:47.803Z,103441.13
2022-11-28T22:59:17.349Z,103448.28
2022-11-28T23:01:45.534Z,103465.34
2022-11-28T23:04:14.161Z,103479.63
2022-11-28T23:06:43.462Z,103465.34
2022-11-28T23:09:14.479Z,103441.13
2022-11-28T23:11:43.232Z,103474.31
2022-11-28T23:14:13.930Z,103459.06
2022-11-28T23:16:44.303Z,103443.81
2022-11-28T23:19:14.219Z,103433.91
2022-11-28T23:21:44.447Z,103448.25
2022-11-28T23:24:15.907Z,103354.91
2022-11-28T23:26:45.709Z,103387.19
2022-11-28T23:29:15.641Z,103389.94
2022-11-28T23:31:45.066Z,103435.69
2022-11-28T23:34:14.283Z,103406.91
2022-11-28T23:36:44.637Z,103432.06
2022-11-28T23:39:16.237Z,103410.56
2022-11-28T23:41:44.767Z,103414.19
2022-11-28T23:44:13.956Z,103398.03
2022-11-28T23:46:43.104Z,103403.44
2022-11-28T23:49:11.736Z,103433.00
2022-11-28T23:51:41.023Z,103425.78
2022-11-28T23:54:09.999Z,103364.84
2022-11-28T23:56:40.596Z,103341.50
2022-11-28T23:59:11.098Z,103360.28
